sensor_id;sensor_type;location;lat;lon;timestamp;P1;durP1;ratioP1;P2;durP2;ratioP2
7529;SDS011;3806;52.270;10.544;2022-11-28T00:02:07;5.10;;;2.65;;
7529;SDS011;3806;52.270;10.544;2022-11-28T00:04:33;5.32;;;3.03;;
7529;SDS011;3806;52.270;10.544;2022-11-28T00:06:59;5.93;;;2.92;;
7529;SDS011;3806;52.270;10.544;2022-11-28T00:09:24;5.65;;;2.95;;
7529;SDS011;3806;52.270;10.544;2022-11-28T00:11:50;5.40;;;2.60;;
7529;SDS011;3806;52.270;10.544;2022-11-28T00:14:16;4.72;;;3.13;;
7529;SDS011;3806;52.270;10.544;2022-11-28T00:16:43;5.28;;;2.90;;
7529;SDS011;3806;52.270;10.544;2022-11-28T00:19:09;4.78;;;2.83;;
7529;SDS011;3806;52.270;10.544;2022-11-28T00:21:35;4.63;;;2.63;;
7529;SDS011;3806;52.270;10.544;2022-11-28T00:24:02;5.03;;;3.42;;
7529;SDS011;3806;52.270;10.544;2022-11-28T00:26:29;6.07;;;3.60;;
7529;SDS011;3806;52.270;10.544;2022-11-28T00:28:57;4.85;;;3.22;;
7529;SDS011;3806;52.270;10.544;2022-11-28T00:31:25;4.95;;;3.35;;
7529;SDS011;3806;52.270;10.544;2022-11-28T00:33:52;4.05;;;2.83;;
7529;SDS011;3806;52.270;10.544;2022-11-28T00:36:21;5.07;;;3.05;;
7529;SDS011;3806;52.270;10.544;2022-11-28T00:38:47;4.18;;;2.97;;
7529;SDS011;3806;52.270;10.544;2022-11-28T00:41:14;4.57;;;2.78;;
7529;SDS011;3806;52.270;10.544;2022-11-28T00:43:42;4.75;;;2.58;;
7529;SDS011;3806;52.270;10.544;2022-11-28T00:46:09;5.97;;;3.03;;
7529;SDS011;3806;52.270;10.544;2022-11-28T00:48:35;4.30;;;2.65;;
7529;SDS011;3806;52.270;10.544;2022-11-28T00:51:06;4.18;;;2.72;;
7529;SDS011;3806;52.270;10.544;2022-11-28T00:53:33;4.45;;;2.63;;
7529;SDS011;3806;52.270;10.544;2022-11-28T00:55:59;5.38;;;2.90;;
7529;SDS011;3806;52.270;10.544;2022-11-28T00:58:25;6.43;;;2.63;;
7529;SDS011;3806;52.270;10.544;2022-11-28T01:00:50;2.58;;;1.88;;
7529;SDS011;3806;52.270;10.544;2022-11-28T01:03:16;4.88;;;2.65;;
7529;SDS011;3806;52.270;10.544;2022-11-28T01:05:41;3.15;;;2.20;;
7529;SDS011;3806;52.270;10.544;2022-11-28T01:08:08;3.85;;;2.13;;
7529;SDS011;3806;52.270;10.544;2022-11-28T01:10:37;5.25;;;2.30;;
7529;SDS011;3806;52.270;10.544;2022-11-28T01:13:04;3.45;;;1.92;;
7529;SDS011;3806;52.270;10.544;2022-11-28T01:15:30;3.47;;;2.30;;
7529;SDS011;3806;52.270;10.544;2022-11-28T01:17:56;3.90;;;1.88;;
7529;SDS011;3806;52.270;10.544;2022-11-28T01:20:21;5.30;;;2.05;;
7529;SDS011;3806;52.270;10.544;2022-11-28T01:22:47;3.38;;;1.75;;
7529;SDS011;3806;52.270;10.544;2022-11-28T01:25:12;5.55;;;2.83;;
7529;SDS011;3806;52.270;10.544;2022-11-28T01:27:38;3.35;;;1.85;;
7529;SDS011;3806;52.270;10.544;2022-11-28T01:30:03;4.60;;;2.42;;
7529;SDS011;3806;52.270;10.544;2022-11-28T01:32:29;4.03;;;2.40;;
7529;SDS011;3806;52.270;10.544;2022-11-28T01:34:55;6.93;;;2.58;;
7529;SDS011;3806;52.270;10.544;2022-11-28T01:37:21;2.92;;;2.10;;
7529;SDS011;3806;52.270;10.544;2022-11-28T01:39:47;2.63;;;1.77;;
7529;SDS011;3806;52.270;10.544;2022-11-28T01:42:19;3.10;;;1.90;;
7529;SDS011;3806;52.270;10.544;2022-11-28T01:47:14;3.20;;;2.17;;
7529;SDS011;3806;52.270;10.544;2022-11-28T01:49:41;5.10;;;2.40;;
7529;SDS011;3806;52.270;10.544;2022-11-28T01:52:13;3.45;;;2.22;;
7529;SDS011;3806;52.270;10.544;2022-11-28T01:54:45;3.28;;;1.90;;
7529;SDS011;3806;52.270;10.544;2022-11-28T01:57:41;5.88;;;2.58;;
7529;SDS011;3806;52.270;10.544;2022-11-28T02:00:18;4.20;;;2.88;;
7529;SDS011;3806;52.270;10.544;2022-11-28T02:02:49;3.88;;;2.50;;
7529;SDS011;3806;52.270;10.544;2022-11-28T02:05:27;4.40;;;2.60;;
7529;SDS011;3806;52.270;10.544;2022-11-28T02:07:56;3.13;;;2.42;;
7529;SDS011;3806;52.270;10.544;2022-11-28T02:48:06;5.32;;;2.80;;
7529;SDS011;3806;52.270;10.544;2022-11-28T02:50:41;6.00;;;3.42;;
7529;SDS011;3806;52.270;10.544;2022-11-28T02:53:39;4.40;;;2.70;;
7529;SDS011;3806;52.270;10.544;2022-11-28T02:56:12;5.65;;;2.85;;
7529;SDS011;3806;52.270;10.544;2022-11-28T03:30:07;4.60;;;2.28;;
7529;SDS011;3806;52.270;10.544;2022-11-28T03:32:49;3.72;;;2.42;;
7529;SDS011;3806;52.270;10.544;2022-11-28T03:38:42;5.72;;;3.65;;
7529;SDS011;3806;52.270;10.544;2022-11-28T03:41:25;7.00;;;3.60;;
7529;SDS011;3806;52.270;10.544;2022-11-28T03:43:59;6.35;;;4.07;;
7529;SDS011;3806;52.270;10.544;2022-11-28T03:46:34;7.10;;;4.32;;
7529;SDS011;3806;52.270;10.544;2022-11-28T03:49:07;8.50;;;4.20;;
7529;SDS011;3806;52.270;10.544;2022-11-28T04:00:16;6.22;;;4.28;;
7529;SDS011;3806;52.270;10.544;2022-11-28T04:05:47;6.95;;;4.07;;
7529;SDS011;3806;52.270;10.544;2022-11-28T04:08:42;9.63;;;3.75;;
7529;SDS011;3806;52.270;10.544;2022-11-28T04:20:17;7.70;;;4.45;;
7529;SDS011;3806;52.270;10.544;2022-11-28T04:22:53;7.22;;;4.65;;
7529;SDS011;3806;52.270;10.544;2022-11-28T04:25:23;9.18;;;4.30;;
7529;SDS011;3806;52.270;10.544;2022-11-28T04:37:14;5.53;;;3.67;;
7529;SDS011;3806;52.270;10.544;2022-11-28T04:39:49;6.72;;;3.88;;
7529;SDS011;3806;52.270;10.544;2022-11-28T04:42:20;6.60;;;4.00;;
7529;SDS011;3806;52.270;10.544;2022-11-28T04:45:36;6.30;;;3.47;;
7529;SDS011;3806;52.270;10.544;2022-11-28T04:48:23;5.15;;;3.63;;
7529;SDS011;3806;52.270;10.544;2022-11-28T04:54:05;7.88;;;3.72;;
7529;SDS011;3806;52.270;10.544;2022-11-28T05:00:04;4.88;;;3.20;;
7529;SDS011;3806;52.270;10.544;2022-11-28T05:08:25;6.15;;;3.08;;
7529;SDS011;3806;52.270;10.544;2022-11-28T05:11:08;4.60;;;2.80;;
7529;SDS011;3806;52.270;10.544;2022-11-28T05:13:37;6.20;;;2.83;;
7529;SDS011;3806;52.270;10.544;2022-11-28T05:16:02;4.13;;;2.20;;
7529;SDS011;3806;52.270;10.544;2022-11-28T05:18:29;3.70;;;2.35;;
7529;SDS011;3806;52.270;10.544;2022-11-28T05:24:10;4.35;;;2.72;;
7529;SDS011;3806;52.270;10.544;2022-11-28T05:26:45;4.10;;;2.38;;
7529;SDS011;3806;52.270;10.544;2022-11-28T05:29:21;4.65;;;2.25;;
7529;SDS011;3806;52.270;10.544;2022-11-28T05:41:59;3.40;;;2.25;;
7529;SDS011;3806;52.270;10.544;2022-11-28T05:55:20;3.67;;;2.40;;
7529;SDS011;3806;52.270;10.544;2022-11-28T05:57:46;4.30;;;2.65;;
7529;SDS011;3806;52.270;10.544;2022-11-28T06:00:12;4.35;;;2.40;;
7529;SDS011;3806;52.270;10.544;2022-11-28T06:02:38;5.35;;;2.58;;
7529;SDS011;3806;52.270;10.544;2022-11-28T06:05:04;3.95;;;2.80;;
7529;SDS011;3806;52.270;10.544;2022-11-28T06:07:30;4.45;;;2.45;;
7529;SDS011;3806;52.270;10.544;2022-11-28T06:09:56;5.13;;;3.22;;
7529;SDS011;3806;52.270;10.544;2022-11-28T06:12:21;3.75;;;2.70;;
7529;SDS011;3806;52.270;10.544;2022-11-28T06:14:47;5.45;;;3.13;;
7529;SDS011;3806;52.270;10.544;2022-11-28T06:17:12;5.20;;;2.88;;
7529;SDS011;3806;52.270;10.544;2022-11-28T06:19:38;4.22;;;2.80;;
7529;SDS011;3806;52.270;10.544;2022-11-28T06:22:06;6.13;;;3.42;;
7529;SDS011;3806;52.270;10.544;2022-11-28T06:24:34;6.15;;;3.53;;
7529;SDS011;3806;52.270;10.544;2022-11-28T06:27:00;5.57;;;3.50;;
7529;SDS011;3806;52.270;10.544;2022-11-28T06:29:25;6.30;;;3.28;;
7529;SDS011;3806;52.270;10.544;2022-11-28T06:31:51;7.05;;;3.75;;
7529;SDS011;3806;52.270;10.544;2022-11-28T06:34:16;6.38;;;3.40;;
7529;SDS011;3806;52.270;10.544;2022-11-28T06:36:42;6.93;;;3.75;;
7529;SDS011;3806;52.270;10.544;2022-11-28T06:39:12;4.95;;;3.58;;
7529;SDS011;3806;52.270;10.544;2022-11-28T06:42:25;6.95;;;4.05;;
7529;SDS011;3806;52.270;10.544;2022-11-28T06:44:53;5.60;;;3.53;;
7529;SDS011;3806;52.270;10.544;2022-11-28T06:51:06;6.00;;;3.65;;
7529;SDS011;3806;52.270;10.544;2022-11-28T06:54:22;6.35;;;3.65;;
7529;SDS011;3806;52.270;10.544;2022-11-28T06:57:28;6.50;;;4.05;;
7529;SDS011;3806;52.270;10.544;2022-11-28T06:59:53;5.95;;;3.80;;
7529;SDS011;3806;52.270;10.544;2022-11-28T07:02:19;5.85;;;3.72;;
7529;SDS011;3806;52.270;10.544;2022-11-28T07:05:32;6.35;;;4.20;;
7529;SDS011;3806;52.270;10.544;2022-11-28T07:15:00;10.65;;;4.10;;
7529;SDS011;3806;52.270;10.544;2022-11-28T07:21:41;9.32;;;4.65;;
7529;SDS011;3806;52.270;10.544;2022-11-28T07:54:49;9.70;;;5.45;;
7529;SDS011;3806;52.270;10.544;2022-11-28T07:57:14;6.82;;;4.88;;
7529;SDS011;3806;52.270;10.544;2022-11-28T07:59:40;7.30;;;4.88;;
7529;SDS011;3806;52.270;10.544;2022-11-28T08:02:05;9.68;;;4.90;;
7529;SDS011;3806;52.270;10.544;2022-11-28T08:04:31;7.40;;;5.28;;
7529;SDS011;3806;52.270;10.544;2022-11-28T08:06:57;8.45;;;4.78;;
7529;SDS011;3806;52.270;10.544;2022-11-28T08:09:22;10.05;;;5.68;;
7529;SDS011;3806;52.270;10.544;2022-11-28T08:11:48;10.32;;;5.20;;
7529;SDS011;3806;52.270;10.544;2022-11-28T08:14:16;8.00;;;4.85;;
7529;SDS011;3806;52.270;10.544;2022-11-28T08:16:42;9.00;;;4.43;;
7529;SDS011;3806;52.270;10.544;2022-11-28T08:19:09;10.25;;;5.70;;
7529;SDS011;3806;52.270;10.544;2022-11-28T08:21:35;9.07;;;5.43;;
7529;SDS011;3806;52.270;10.544;2022-11-28T08:24:01;8.95;;;5.22;;
7529;SDS011;3806;52.270;10.544;2022-11-28T08:26:28;11.73;;;6.10;;
7529;SDS011;3806;52.270;10.544;2022-11-28T08:28:55;11.25;;;4.55;;
7529;SDS011;3806;52.270;10.544;2022-11-28T08:31:24;10.65;;;5.35;;
7529;SDS011;3806;52.270;10.544;2022-11-28T08:33:51;8.88;;;4.97;;
7529;SDS011;3806;52.270;10.544;2022-11-28T08:36:18;8.20;;;5.38;;
7529;SDS011;3806;52.270;10.544;2022-11-28T08:38:45;6.78;;;4.50;;
7529;SDS011;3806;52.270;10.544;2022-11-28T08:41:12;8.63;;;5.50;;
7529;SDS011;3806;52.270;10.544;2022-11-28T08:43:39;11.38;;;6.05;;
7529;SDS011;3806;52.270;10.544;2022-11-28T08:46:06;9.15;;;5.18;;
7529;SDS011;3806;52.270;10.544;2022-11-28T08:48:34;11.63;;;5.00;;
7529;SDS011;3806;52.270;10.544;2022-11-28T08:51:00;8.48;;;4.75;;
7529;SDS011;3806;52.270;10.544;2022-11-28T08:53:26;8.95;;;4.70;;
7529;SDS011;3806;52.270;10.544;2022-11-28T08:55:52;9.70;;;4.65;;
7529;SDS011;3806;52.270;10.544;2022-11-28T08:58:17;7.32;;;5.00;;
7529;SDS011;3806;52.270;10.544;2022-11-28T09:00:43;7.40;;;4.72;;
7529;SDS011;3806;52.270;10.544;2022-11-28T09:03:13;6.70;;;4.30;;
7529;SDS011;3806;52.270;10.544;2022-11-28T09:05:40;7.43;;;4.57;;
7529;SDS011;3806;52.270;10.544;2022-11-28T09:08:07;19.20;;;4.95;;
7529;SDS011;3806;52.270;10.544;2022-11-28T09:10:36;6.13;;;4.63;;
7529;SDS011;3806;52.270;10.544;2022-11-28T09:13:03;9.00;;;4.30;;
7529;SDS011;3806;52.270;10.544;2022-11-28T09:15:30;7.70;;;4.25;;
7529;SDS011;3806;52.270;10.544;2022-11-28T09:17:56;8.40;;;4.55;;
7529;SDS011;3806;52.270;10.544;2022-11-28T09:20:21;8.85;;;4.82;;
7529;SDS011;3806;52.270;10.544;2022-11-28T09:22:47;9.93;;;4.20;;
7529;SDS011;3806;52.270;10.544;2022-11-28T09:25:13;7.22;;;3.70;;
7529;SDS011;3806;52.270;10.544;2022-11-28T09:27:39;9.52;;;4.60;;
7529;SDS011;3806;52.270;10.544;2022-11-28T09:30:05;7.85;;;4.20;;
7529;SDS011;3806;52.270;10.544;2022-11-28T09:32:31;7.40;;;4.07;;
7529;SDS011;3806;52.270;10.544;2022-11-28T09:34:57;7.57;;;3.90;;
7529;SDS011;3806;52.270;10.544;2022-11-28T09:37:23;6.80;;;4.18;;
7529;SDS011;3806;52.270;10.544;2022-11-28T09:39:49;6.70;;;3.85;;
7529;SDS011;3806;52.270;10.544;2022-11-28T09:44:51;10.65;;;3.95;;
7529;SDS011;3806;52.270;10.544;2022-11-28T09:47:26;5.50;;;3.20;;
7529;SDS011;3806;52.270;10.544;2022-11-28T09:52:32;5.93;;;3.95;;
7529;SDS011;3806;52.270;10.544;2022-11-28T09:55:32;8.52;;;3.55;;
7529;SDS011;3806;52.270;10.544;2022-11-28T09:58:38;8.07;;;4.22;;
7529;SDS011;3806;52.270;10.544;2022-11-28T10:03:41;5.85;;;3.13;;
7529;SDS011;3806;52.270;10.544;2022-11-28T10:11:56;7.70;;;4.07;;
7529;SDS011;3806;52.270;10.544;2022-11-28T10:14:34;7.90;;;3.42;;
7529;SDS011;3806;52.270;10.544;2022-11-28T10:20:22;6.20;;;4.15;;
7529;SDS011;3806;52.270;10.544;2022-11-28T10:22:56;7.32;;;3.83;;
7529;SDS011;3806;52.270;10.544;2022-11-28T10:25:31;9.13;;;4.80;;
7529;SDS011;3806;52.270;10.544;2022-11-28T10:28:10;8.48;;;4.53;;
7529;SDS011;3806;52.270;10.544;2022-11-28T10:30:40;6.38;;;3.85;;
7529;SDS011;3806;52.270;10.544;2022-11-28T10:33:19;6.63;;;4.32;;
7529;SDS011;3806;52.270;10.544;2022-11-28T10:35:55;6.80;;;3.80;;
7529;SDS011;3806;52.270;10.544;2022-11-28T10:38:23;7.25;;;4.57;;
7529;SDS011;3806;52.270;10.544;2022-11-28T10:41:06;9.43;;;3.80;;
7529;SDS011;3806;52.270;10.544;2022-11-28T10:43:44;8.05;;;4.68;;
7529;SDS011;3806;52.270;10.544;2022-11-28T10:54:51;9.00;;;5.00;;
7529;SDS011;3806;52.270;10.544;2022-11-28T11:00:13;6.93;;;4.35;;
7529;SDS011;3806;52.270;10.544;2022-11-28T11:02:43;7.07;;;3.63;;
7529;SDS011;3806;52.270;10.544;2022-11-28T11:05:17;7.43;;;5.43;;
7529;SDS011;3806;52.270;10.544;2022-11-28T11:07:54;8.15;;;4.57;;
7529;SDS011;3806;52.270;10.544;2022-11-28T11:10:45;5.22;;;4.18;;
7529;SDS011;3806;52.270;10.544;2022-11-28T11:15:43;7.65;;;4.68;;
7529;SDS011;3806;52.270;10.544;2022-11-28T11:18:20;6.60;;;4.82;;
7529;SDS011;3806;52.270;10.544;2022-11-28T11:20:48;7.75;;;4.60;;
7529;SDS011;3806;52.270;10.544;2022-11-28T11:23:21;5.88;;;3.65;;
7529;SDS011;3806;52.270;10.544;2022-11-28T11:25:51;7.80;;;4.50;;
7529;SDS011;3806;52.270;10.544;2022-11-28T11:28:25;11.18;;;4.55;;
7529;SDS011;3806;52.270;10.544;2022-11-28T11:30:58;8.32;;;4.35;;
7529;SDS011;3806;52.270;10.544;2022-11-28T11:33:38;7.57;;;4.55;;
7529;SDS011;3806;52.270;10.544;2022-11-28T11:36:05;8.20;;;4.25;;
7529;SDS011;3806;52.270;10.544;2022-11-28T11:38:51;7.80;;;4.65;;
7529;SDS011;3806;52.270;10.544;2022-11-28T11:41:28;8.57;;;3.95;;
7529;SDS011;3806;52.270;10.544;2022-11-28T11:43:55;9.20;;;4.75;;
7529;SDS011;3806;52.270;10.544;2022-11-28T11:46:51;8.07;;;4.30;;
7529;SDS011;3806;52.270;10.544;2022-11-28T11:49:35;6.80;;;4.30;;
7529;SDS011;3806;52.270;10.544;2022-11-28T11:52:08;11.15;;;5.40;;
7529;SDS011;3806;52.270;10.544;2022-11-28T11:57:31;7.32;;;4.93;;
7529;SDS011;3806;52.270;10.544;2022-11-28T12:05:28;7.63;;;4.32;;
7529;SDS011;3806;52.270;10.544;2022-11-28T12:08:00;7.45;;;4.32;;
7529;SDS011;3806;52.270;10.544;2022-11-28T12:10:32;11.60;;;5.38;;
7529;SDS011;3806;52.270;10.544;2022-11-28T12:13:01;13.13;;;5.50;;
7529;SDS011;3806;52.270;10.544;2022-11-28T12:15:30;7.72;;;4.45;;
7529;SDS011;3806;52.270;10.544;2022-11-28T12:23:48;7.72;;;4.18;;
7529;SDS011;3806;52.270;10.544;2022-11-28T12:26:20;7.55;;;4.25;;
7529;SDS011;3806;52.270;10.544;2022-11-28T12:37:40;6.07;;;3.78;;
7529;SDS011;3806;52.270;10.544;2022-11-28T12:40:23;5.32;;;4.07;;
7529;SDS011;3806;52.270;10.544;2022-11-28T12:45:58;7.50;;;3.97;;
7529;SDS011;3806;52.270;10.544;2022-11-28T12:51:33;9.45;;;4.40;;
7529;SDS011;3806;52.270;10.544;2022-11-28T12:54:27;6.65;;;3.88;;
7529;SDS011;3806;52.270;10.544;2022-11-28T12:57:07;7.50;;;3.88;;
7529;SDS011;3806;52.270;10.544;2022-11-28T12:59:42;6.35;;;3.65;;
7529;SDS011;3806;52.270;10.544;2022-11-28T13:02:19;6.35;;;4.35;;
7529;SDS011;3806;52.270;10.544;2022-11-28T13:13:16;6.05;;;3.80;;
7529;SDS011;3806;52.270;10.544;2022-11-28T13:23:38;6.57;;;3.65;;
7529;SDS011;3806;52.270;10.544;2022-11-28T13:26:29;8.68;;;3.83;;
7529;SDS011;3806;52.270;10.544;2022-11-28T13:31:42;7.60;;;4.18;;
7529;SDS011;3806;52.270;10.544;2022-11-28T13:34:22;5.88;;;3.33;;
7529;SDS011;3806;52.270;10.544;2022-11-28T13:39:32;7.13;;;4.45;;
7529;SDS011;3806;52.270;10.544;2022-11-28T13:44:52;10.52;;;4.35;;
7529;SDS011;3806;52.270;10.544;2022-11-28T13:47:32;9.45;;;4.68;;
7529;SDS011;3806;52.270;10.544;2022-11-28T13:52:56;6.82;;;4.03;;
7529;SDS011;3806;52.270;10.544;2022-11-28T13:55:38;9.18;;;4.75;;
7529;SDS011;3806;52.270;10.544;2022-11-28T14:01:28;10.48;;;5.10;;
7529;SDS011;3806;52.270;10.544;2022-11-28T14:04:15;6.88;;;4.22;;
7529;SDS011;3806;52.270;10.544;2022-11-28T14:06:48;8.48;;;4.65;;
7529;SDS011;3806;52.270;10.544;2022-11-28T14:20:07;8.10;;;4.25;;
7529;SDS011;3806;52.270;10.544;2022-11-28T14:25:38;8.90;;;4.82;;
7529;SDS011;3806;52.270;10.544;2022-11-28T14:31:04;10.80;;;5.03;;
7529;SDS011;3806;52.270;10.544;2022-11-28T14:33:35;7.78;;;4.57;;
7529;SDS011;3806;52.270;10.544;2022-11-28T14:36:05;11.10;;;4.88;;
7529;SDS011;3806;52.270;10.544;2022-11-28T14:39:04;6.38;;;4.72;;
7529;SDS011;3806;52.270;10.544;2022-11-28T14:47:35;7.13;;;4.68;;
7529;SDS011;3806;52.270;10.544;2022-11-28T14:57:58;7.95;;;4.72;;
7529;SDS011;3806;52.270;10.544;2022-11-28T15:00:27;7.90;;;4.90;;
7529;SDS011;3806;52.270;10.544;2022-11-28T15:03:21;9.88;;;4.70;;
7529;SDS011;3806;52.270;10.544;2022-11-28T15:05:51;11.13;;;5.63;;
7529;SDS011;3806;52.270;10.544;2022-11-28T15:08:33;8.18;;;4.80;;
7529;SDS011;3806;52.270;10.544;2022-11-28T15:11:12;10.80;;;5.05;;
7529;SDS011;3806;52.270;10.544;2022-11-28T15:13:51;8.63;;;5.13;;
7529;SDS011;3806;52.270;10.544;2022-11-28T15:16:28;9.82;;;4.85;;
7529;SDS011;3806;52.270;10.544;2022-11-28T15:19:06;14.30;;;5.90;;
7529;SDS011;3806;52.270;10.544;2022-11-28T15:21:52;10.35;;;5.60;;
7529;SDS011;3806;52.270;10.544;2022-11-28T15:26:50;8.20;;;5.20;;
7529;SDS011;3806;52.270;10.544;2022-11-28T15:29:20;9.68;;;6.05;;
7529;SDS011;3806;52.270;10.544;2022-11-28T15:31:48;10.52;;;4.97;;
7529;SDS011;3806;52.270;10.544;2022-11-28T15:34:22;9.48;;;5.43;;
7529;SDS011;3806;52.270;10.544;2022-11-28T15:36:57;9.15;;;5.40;;
7529;SDS011;3806;52.270;10.544;2022-11-28T15:41:55;10.93;;;5.03;;
7529;SDS011;3806;52.270;10.544;2022-11-28T15:44:22;12.98;;;5.38;;
7529;SDS011;3806;52.270;10.544;2022-11-28T15:46:48;9.90;;;5.20;;
7529;SDS011;3806;52.270;10.544;2022-11-28T15:49:31;8.70;;;5.43;;
7529;SDS011;3806;52.270;10.544;2022-11-28T15:51:59;11.48;;;5.72;;
7529;SDS011;3806;52.270;10.544;2022-11-28T15:54:37;9.85;;;5.65;;
7529;SDS011;3806;52.270;10.544;2022-11-28T15:57:17;14.00;;;6.40;;
7529;SDS011;3806;52.270;10.544;2022-11-28T15:59:44;11.45;;;6.13;;
7529;SDS011;3806;52.270;10.544;2022-11-28T16:02:12;9.50;;;5.50;;
7529;SDS011;3806;52.270;10.544;2022-11-28T16:04:54;11.75;;;5.70;;
7529;SDS011;3806;52.270;10.544;2022-11-28T16:07:32;9.40;;;5.65;;
7529;SDS011;3806;52.270;10.544;2022-11-28T16:10:01;8.90;;;4.70;;
7529;SDS011;3806;52.270;10.544;2022-11-28T16:12:29;10.13;;;6.05;;
7529;SDS011;3806;52.270;10.544;2022-11-28T16:14:55;13.32;;;5.50;;
7529;SDS011;3806;52.270;10.544;2022-11-28T16:17:30;8.38;;;5.20;;
7529;SDS011;3806;52.270;10.544;2022-11-28T16:19:57;7.20;;;4.47;;
7529;SDS011;3806;52.270;10.544;2022-11-28T16:22:28;10.98;;;5.13;;
7529;SDS011;3806;52.270;10.544;2022-11-28T16:25:09;10.07;;;5.32;;
7529;SDS011;3806;52.270;10.544;2022-11-28T16:27:41;12.27;;;5.00;;
7529;SDS011;3806;52.270;10.544;2022-11-28T16:32:47;9.70;;;5.32;;
7529;SDS011;3806;52.270;10.544;2022-11-28T16:35:23;8.27;;;4.88;;
7529;SDS011;3806;52.270;10.544;2022-11-28T16:38:05;8.77;;;5.78;;
7529;SDS011;3806;52.270;10.544;2022-11-28T16:40:46;8.07;;;5.13;;
7529;SDS011;3806;52.270;10.544;2022-11-28T16:43:33;9.07;;;5.47;;
7529;SDS011;3806;52.270;10.544;2022-11-28T16:46:00;10.90;;;5.15;;
7529;SDS011;3806;52.270;10.544;2022-11-28T16:48:31;13.23;;;6.00;;
7529;SDS011;3806;52.270;10.544;2022-11-28T16:59:12;10.48;;;5.53;;
7529;SDS011;3806;52.270;10.544;2022-11-28T17:01:43;14.65;;;6.43;;
7529;SDS011;3806;52.270;10.544;2022-11-28T17:06:51;8.48;;;5.40;;
7529;SDS011;3806;52.270;10.544;2022-11-28T17:09:18;10.23;;;5.75;;
7529;SDS011;3806;52.270;10.544;2022-11-28T17:11:55;13.93;;;6.82;;
7529;SDS011;3806;52.270;10.544;2022-11-28T17:14:35;15.13;;;6.18;;
7529;SDS011;3806;52.270;10.544;2022-11-28T17:17:07;11.95;;;6.55;;
7529;SDS011;3806;52.270;10.544;2022-11-28T17:19:37;13.82;;;5.68;;
7529;SDS011;3806;52.270;10.544;2022-11-28T17:22:02;12.18;;;6.20;;
7529;SDS011;3806;52.270;10.544;2022-11-28T17:24:30;14.32;;;6.20;;
7529;SDS011;3806;52.270;10.544;2022-11-28T17:26:58;10.50;;;5.65;;
7529;SDS011;3806;52.270;10.544;2022-11-28T17:29:24;11.48;;;6.65;;
7529;SDS011;3806;52.270;10.544;2022-11-28T17:31:49;12.82;;;6.60;;
7529;SDS011;3806;52.270;10.544;2022-11-28T17:34:19;12.57;;;6.18;;
7529;SDS011;3806;52.270;10.544;2022-11-28T17:36:47;11.38;;;6.57;;
7529;SDS011;3806;52.270;10.544;2022-11-28T17:39:13;13.15;;;6.30;;
7529;SDS011;3806;52.270;10.544;2022-11-28T17:41:39;10.07;;;5.40;;
7529;SDS011;3806;52.270;10.544;2022-11-28T17:44:06;10.38;;;5.88;;
7529;SDS011;3806;52.270;10.544;2022-11-28T17:46:40;11.35;;;5.32;;
7529;SDS011;3806;52.270;10.544;2022-11-28T17:49:05;13.48;;;6.32;;
7529;SDS011;3806;52.270;10.544;2022-11-28T17:51:31;14.88;;;6.25;;
7529;SDS011;3806;52.270;10.544;2022-11-28T17:53:57;11.82;;;5.95;;
7529;SDS011;3806;52.270;10.544;2022-11-28T17:56:22;12.07;;;6.50;;
7529;SDS011;3806;52.270;10.544;2022-11-28T17:58:48;10.88;;;6.10;;
7529;SDS011;3806;52.270;10.544;2022-11-28T18:01:14;11.48;;;6.93;;
7529;SDS011;3806;52.270;10.544;2022-11-28T18:03:42;12.02;;;6.25;;
7529;SDS011;3806;52.270;10.544;2022-11-28T18:06:13;12.05;;;5.55;;
7529;SDS011;3806;52.270;10.544;2022-11-28T18:08:43;14.63;;;6.75;;
7529;SDS011;3806;52.270;10.544;2022-11-28T18:11:10;10.90;;;6.85;;
7529;SDS011;3806;52.270;10.544;2022-11-28T18:13:37;12.82;;;5.88;;
7529;SDS011;3806;52.270;10.544;2022-11-28T18:16:03;11.68;;;5.85;;
7529;SDS011;3806;52.270;10.544;2022-11-28T18:18:29;9.88;;;5.72;;
7529;SDS011;3806;52.270;10.544;2022-11-28T18:20:56;10.68;;;5.95;;
7529;SDS011;3806;52.270;10.544;2022-11-28T18:23:21;9.98;;;5.72;;
7529;SDS011;3806;52.270;10.544;2022-11-28T18:25:47;10.50;;;6.00;;
7529;SDS011;3806;52.270;10.544;2022-11-28T18:28:13;13.65;;;6.55;;
7529;SDS011;3806;52.270;10.544;2022-11-28T18:30:40;10.57;;;6.25;;
7529;SDS011;3806;52.270;10.544;2022-11-28T18:33:07;12.43;;;6.22;;
7529;SDS011;3806;52.270;10.544;2022-11-28T18:35:33;11.32;;;5.80;;
7529;SDS011;3806;52.270;10.544;2022-11-28T18:37:58;10.88;;;6.45;;
7529;SDS011;3806;52.270;10.544;2022-11-28T18:40:24;10.23;;;6.15;;
7529;SDS011;3806;52.270;10.544;2022-11-28T18:42:49;11.43;;;6.20;;
7529;SDS011;3806;52.270;10.544;2022-11-28T18:45:15;9.98;;;5.88;;
7529;SDS011;3806;52.270;10.544;2022-11-28T18:47:40;9.40;;;5.75;;
7529;SDS011;3806;52.270;10.544;2022-11-28T18:50:06;12.32;;;6.70;;
7529;SDS011;3806;52.270;10.544;2022-11-28T18:52:32;12.10;;;6.60;;
7529;SDS011;3806;52.270;10.544;2022-11-28T18:54:59;11.27;;;6.47;;
7529;SDS011;3806;52.270;10.544;2022-11-28T18:57:24;11.65;;;6.97;;
7529;SDS011;3806;52.270;10.544;2022-11-28T18:59:55;12.90;;;6.43;;
7529;SDS011;3806;52.270;10.544;2022-11-28T19:02:21;10.05;;;6.20;;
7529;SDS011;3806;52.270;10.544;2022-11-28T19:04:47;8.02;;;5.32;;
7529;SDS011;3806;52.270;10.544;2022-11-28T19:07:13;10.93;;;6.53;;
7529;SDS011;3806;52.270;10.544;2022-11-28T19:09:38;10.52;;;5.90;;
7529;SDS011;3806;52.270;10.544;2022-11-28T19:12:05;15.68;;;7.30;;
7529;SDS011;3806;52.270;10.544;2022-11-28T19:14:30;15.45;;;7.28;;
7529;SDS011;3806;52.270;10.544;2022-11-28T19:16:56;19.83;;;9.38;;
7529;SDS011;3806;52.270;10.544;2022-11-28T19:19:22;21.13;;;9.60;;
7529;SDS011;3806;52.270;10.544;2022-11-28T19:21:48;15.50;;;7.88;;
7529;SDS011;3806;52.270;10.544;2022-11-28T19:24:14;15.23;;;8.52;;
7529;SDS011;3806;52.270;10.544;2022-11-28T19:26:39;14.93;;;7.78;;
7529;SDS011;3806;52.270;10.544;2022-11-28T19:29:05;10.77;;;6.72;;
7529;SDS011;3806;52.270;10.544;2022-11-28T19:31:33;11.25;;;6.72;;
7529;SDS011;3806;52.270;10.544;2022-11-28T19:34:00;13.52;;;7.35;;
7529;SDS011;3806;52.270;10.544;2022-11-28T19:36:35;11.50;;;6.45;;
7529;SDS011;3806;52.270;10.544;2022-11-28T19:39:04;11.85;;;6.13;;
7529;SDS011;3806;52.270;10.544;2022-11-28T19:41:31;14.27;;;7.57;;
7529;SDS011;3806;52.270;10.544;2022-11-28T19:43:57;10.10;;;5.60;;
7529;SDS011;3806;52.270;10.544;2022-11-28T19:46:23;9.85;;;6.28;;
7529;SDS011;3806;52.270;10.544;2022-11-28T19:48:49;12.40;;;5.78;;
7529;SDS011;3806;52.270;10.544;2022-11-28T19:51:15;11.35;;;6.30;;
7529;SDS011;3806;52.270;10.544;2022-11-28T19:53:41;11.95;;;6.25;;
7529;SDS011;3806;52.270;10.544;2022-11-28T19:58:38;10.93;;;5.80;;
7529;SDS011;3806;52.270;10.544;2022-11-28T20:01:21;9.88;;;5.35;;
7529;SDS011;3806;52.270;10.544;2022-11-28T20:03:50;10.38;;;5.68;;
7529;SDS011;3806;52.270;10.544;2022-11-28T20:06:20;12.68;;;6.32;;
7529;SDS011;3806;52.270;10.544;2022-11-28T20:08:51;13.07;;;6.30;;
7529;SDS011;3806;52.270;10.544;2022-11-28T20:11:22;12.52;;;6.05;;
7529;SDS011;3806;52.270;10.544;2022-11-28T20:13:54;11.38;;;6.95;;
7529;SDS011;3806;52.270;10.544;2022-11-28T20:16:25;10.32;;;5.93;;
7529;SDS011;3806;52.270;10.544;2022-11-28T20:18:52;11.00;;;5.38;;
7529;SDS011;3806;52.270;10.544;2022-11-28T20:21:18;8.75;;;5.75;;
7529;SDS011;3806;52.270;10.544;2022-11-28T20:23:46;11.70;;;5.97;;
7529;SDS011;3806;52.270;10.544;2022-11-28T20:26:15;10.18;;;6.00;;
7529;SDS011;3806;52.270;10.544;2022-11-28T20:28:42;9.98;;;6.47;;
7529;SDS011;3806;52.270;10.544;2022-11-28T20:31:15;8.48;;;5.88;;
7529;SDS011;3806;52.270;10.544;2022-11-28T20:33:46;11.77;;;5.43;;
7529;SDS011;3806;52.270;10.544;2022-11-28T20:36:14;7.50;;;5.25;;
7529;SDS011;3806;52.270;10.544;2022-11-28T20:38:41;10.40;;;5.90;;
7529;SDS011;3806;52.270;10.544;2022-11-28T20:41:07;9.73;;;5.78;;
7529;SDS011;3806;52.270;10.544;2022-11-28T20:43:35;10.38;;;5.30;;
7529;SDS011;3806;52.270;10.544;2022-11-28T20:46:02;8.25;;;5.65;;
7529;SDS011;3806;52.270;10.544;2022-11-28T20:48:29;10.85;;;6.05;;
7529;SDS011;3806;52.270;10.544;2022-11-28T20:51:00;8.57;;;5.38;;